sensor_id;sensor_type;location;lat;lon;timestamp;noise_LAeq;noise_LA_min;noise_LA_max;noise_LA01;noise_LA95
66335;Laerm;53138;51.496;6.410;2023-05-21T00:00:08;41.84;35.04;47.40;;
66335;Laerm;53138;51.496;6.410;2023-05-21T00:00:21;45.05;37.20;51.06;;
66335;Laerm;53138;51.496;6.410;2023-05-21T00:00:32;44.11;39.19;50.05;;
66335;Laerm;53138;51.496;6.410;2023-05-21T00:00:42;43.72;38.87;48.14;;
66335;Laerm;53138;51.496;6.410;2023-05-21T00:00:52;45.51;40.06;49.77;;
66335;Laerm;53138;51.496;6.410;2023-05-21T00:01:02;47.89;42.66;52.88;;
66335;Laerm;53138;51.496;6.410;2023-05-21T00:01:16;47.87;39.21;53.52;;
66335;Laerm;53138;51.496;6.410;2023-05-21T00:01:26;47.18;38.39;53.90;;
66335;Laerm;53138;51.496;6.410;2023-05-21T00:01:36;45.73;38.41;50.68;;
66335;Laerm;53138;51.496;6.410;2023-05-21T00:01:48;44.52;34.44;51.40;;
66335;Laerm;53138;51.496;6.410;2023-05-21T00:01:58;42.84;37.47;47.62;;
66335;Laerm;53138;51.496;6.410;2023-05-21T00:02:09;40.84;31.83;51.09;;
66335;Laerm;53138;51.496;6.410;2023-05-21T00:02:20;37.20;30.97;48.63;;
66335;Laerm;53138;51.496;6.410;2023-05-21T00:02:31;40.13;32.72;49.18;;
66335;Laerm;53138;51.496;6.410;2023-05-21T00:02:43;43.71;34.21;51.94;;
66335;Laerm;53138;51.496;6.410;2023-05-21T00:02:53;43.93;36.75;50.29;;
66335;Laerm;53138;51.496;6.410;2023-05-21T00:03:04;40.84;34.99;48.50;;
66335;Laerm;53138;51.496;6.410;2023-05-21T00:03:14;42.74;34.65;50.05;;
66335;Laerm;53138;51.496;6.410;2023-05-21T00:03:25;41.23;34.41;46.70;;
66335;Laerm;53138;51.496;6.410;2023-05-21T00:03:37;41.58;33.13;50.20;;
66335;Laerm;53138;51.496;6.410;2023-05-21T00:03:50;45.94;37.23;53.23;;
66335;Laerm;53138;51.496;6.410;2023-05-21T00:04:00;47.28;42.03;52.12;;
66335;Laerm;53138;51.496;6.410;2023-05-21T00:04:11;43.98;38.29;50.08;;
66335;Laerm;53138;51.496;6.410;2023-05-21T00:04:22;43.82;37.87;51.35;;
66335;Laerm;53138;51.496;6.410;2023-05-21T00:04:34;43.26;33.38;49.68;;
66335;Laerm;53138;51.496;6.410;2023-05-21T00:04:44;39.40;31.59;46.84;;
66335;Laerm;53138;51.496;6.410;2023-05-21T00:04:54;40.36;30.46;47.52;;
66335;Laerm;53138;51.496;6.410;2023-05-21T00:05:05;46.15;36.52;53.86;;
66335;Laerm;53138;51.496;6.410;2023-05-21T00:05:15;42.69;33.06;52.63;;
66335;Laerm;53138;51.496;6.410;2023-05-21T00:05:27;47.79;39.13;57.81;;
66335;Laerm;53138;51.496;6.410;2023-05-21T00:05:38;44.18;36.29;56.87;;
66335;Laerm;53138;51.496;6.410;2023-05-21T00:05:48;46.32;36.58;58.52;;
66335;Laerm;53138;51.496;6.410;2023-05-21T00:05:59;45.95;34.96;52.57;;
66335;Laerm;53138;51.496;6.410;2023-05-21T00:06:11;42.81;31.64;48.95;;
66335;Laerm;53138;51.496;6.410;2023-05-21T00:06:22;46.63;39.31;54.56;;
66335;Laerm;53138;51.496;6.410;2023-05-21T00:06:32;41.26;33.40;50.84;;
66335;Laerm;53138;51.496;6.410;2023-05-21T00:06:44;36.19;31.85;40.80;;
66335;Laerm;53138;51.496;6.410;2023-05-21T00:06:55;35.33;31.13;41.40;;
66335;Laerm;53138;51.496;6.410;2023-05-21T00:07:08;33.60;31.43;36.15;;
66335;Laerm;53138;51.496;6.410;2023-05-21T00:07:18;34.84;31.15;39.02;;
66335;Laerm;53138;51.496;6.410;2023-05-21T00:07:29;34.59;30.82;41.94;;
66335;Laerm;53138;51.496;6.410;2023-05-21T00:07:40;33.03;30.86;38.67;;
66335;Laerm;53138;51.496;6.410;2023-05-21T00:07:50;33.28;30.25;37.89;;
66335;Laerm;53138;51.496;6.410;2023-05-21T00:08:02;33.29;30.79;36.52;;
66335;Laerm;53138;51.496;6.410;2023-05-21T00:08:12;33.22;31.09;40.19;;
66335;Laerm;53138;51.496;6.410;2023-05-21T00:08:23;33.80;30.95;39.35;;
66335;Laerm;53138;51.496;6.410;2023-05-21T00:08:33;33.10;30.78;36.20;;
66335;Laerm;53138;51.496;6.410;2023-05-21T00:08:43;33.41;30.84;39.74;;
66335;Laerm;53138;51.496;6.410;2023-05-21T00:08:53;35.94;31.89;40.75;;
66335;Laerm;53138;51.496;6.410;2023-05-21T00:09:04;34.57;31.76;40.34;;
66335;Laerm;53138;51.496;6.410;2023-05-21T00:09:14;33.85;31.39;37.59;;
66335;Laerm;53138;51.496;6.410;2023-05-21T00:09:25;32.75;30.40;34.92;;
66335;Laerm;53138;51.496;6.410;2023-05-21T00:09:36;33.75;30.93;37.18;;
66335;Laerm;53138;51.496;6.410;2023-05-21T00:09:47;32.72;30.51;36.52;;
66335;Laerm;53138;51.496;6.410;2023-05-21T00:09:57;34.39;31.24;43.16;;
66335;Laerm;53138;51.496;6.410;2023-05-21T00:10:08;36.13;31.81;43.41;;
66335;Laerm;53138;51.496;6.410;2023-05-21T00:10:18;38.37;33.09;46.63;;
66335;Laerm;53138;51.496;6.410;2023-05-21T00:10:28;37.26;33.91;41.85;;
66335;Laerm;53138;51.496;6.410;2023-05-21T00:10:38;37.62;33.45;42.51;;
66335;Laerm;53138;51.496;6.410;2023-05-21T00:10:49;35.12;31.88;39.29;;
66335;Laerm;53138;51.496;6.410;2023-05-21T00:10:59;36.20;32.33;40.38;;
66335;Laerm;53138;51.496;6.410;2023-05-21T00:11:09;38.93;35.10;43.31;;
66335;Laerm;53138;51.496;6.410;2023-05-21T00:11:19;42.75;37.69;45.85;;
66335;Laerm;53138;51.496;6.410;2023-05-21T00:11:31;42.20;37.32;47.99;;
66335;Laerm;53138;51.496;6.410;2023-05-21T00:11:41;38.18;34.83;44.39;;
66335;Laerm;53138;51.496;6.410;2023-05-21T00:11:51;35.96;31.78;43.31;;
66335;Laerm;53138;51.496;6.410;2023-05-21T00:12:02;33.95;31.74;38.33;;
66335;Laerm;53138;51.496;6.410;2023-05-21T00:12:12;33.54;31.27;38.95;;
66335;Laerm;53138;51.496;6.410;2023-05-21T00:12:23;33.56;31.05;40.59;;
66335;Laerm;53138;51.496;6.410;2023-05-21T00:12:33;33.08;30.68;36.44;;
66335;Laerm;53138;51.496;6.410;2023-05-21T00:12:43;32.53;30.86;35.33;;
66335;Laerm;53138;51.496;6.410;2023-05-21T00:12:53;32.14;30.36;36.37;;
66335;Laerm;53138;51.496;6.410;2023-05-21T00:13:04;32.19;30.11;37.30;;
66335;Laerm;53138;51.496;6.410;2023-05-21T00:13:14;33.06;31.27;35.94;;
66335;Laerm;53138;51.496;6.410;2023-05-21T00:13:24;38.25;32.15;43.49;;
66335;Laerm;53138;51.496;6.410;2023-05-21T00:13:35;38.40;32.98;43.28;;
66335;Laerm;53138;51.496;6.410;2023-05-21T00:13:45;34.11;31.39;38.87;;
66335;Laerm;53138;51.496;6.410;2023-05-21T00:13:55;34.06;31.52;37.36;;
66335;Laerm;53138;51.496;6.410;2023-05-21T00:14:06;35.64;32.56;39.11;;
66335;Laerm;53138;51.496;6.410;2023-05-21T00:14:16;39.66;34.02;43.60;;
66335;Laerm;53138;51.496;6.410;2023-05-21T00:14:26;36.85;32.37;40.38;;
66335;Laerm;53138;51.496;6.410;2023-05-21T00:14:36;36.68;33.21;42.86;;
66335;Laerm;53138;51.496;6.410;2023-05-21T00:14:46;40.31;34.10;46.42;;
66335;Laerm;53138;51.496;6.410;2023-05-21T00:14:57;38.89;32.47;44.48;;
66335;Laerm;53138;51.496;6.410;2023-05-21T00:15:08;34.25;31.76;36.99;;
66335;Laerm;53138;51.496;6.410;2023-05-21T00:15:18;33.73;31.47;36.75;;
66335;Laerm;53138;51.496;6.410;2023-05-21T00:15:28;34.33;31.91;37.38;;
66335;Laerm;53138;51.496;6.410;2023-05-21T00:15:39;40.01;33.50;46.30;;
66335;Laerm;53138;51.496;6.410;2023-05-21T00:15:49;39.66;32.99;47.29;;
66335;Laerm;53138;51.496;6.410;2023-05-21T00:15:59;35.08;31.49;44.30;;
66335;Laerm;53138;51.496;6.410;2023-05-21T00:16:09;36.64;31.64;44.39;;
66335;Laerm;53138;51.496;6.410;2023-05-21T00:16:20;33.85;30.99;39.31;;
66335;Laerm;53138;51.496;6.410;2023-05-21T00:16:31;34.99;30.54;39.74;;
66335;Laerm;53138;51.496;6.410;2023-05-21T00:16:41;36.35;32.68;43.89;;
66335;Laerm;53138;51.496;6.410;2023-05-21T00:16:53;39.06;34.41;45.73;;
66335;Laerm;53138;51.496;6.410;2023-05-21T00:17:04;36.70;34.11;40.14;;
66335;Laerm;53138;51.496;6.410;2023-05-21T00:17:14;37.94;33.80;45.42;;
66335;Laerm;53138;51.496;6.410;2023-05-21T00:17:24;38.22;33.94;43.50;;
66335;Laerm;53138;51.496;6.410;2023-05-21T00:17:35;36.39;33.56;40.15;;
66335;Laerm;53138;51.496;6.410;2023-05-21T00:17:45;36.18;33.01;42.98;;
66335;Laerm;53138;51.496;6.410;2023-05-21T00:17:56;37.08;32.74;41.96;;
66335;Laerm;53138;51.496;6.410;2023-05-21T00:18:06;37.52;33.85;42.34;;
66335;Laerm;53138;51.496;6.410;2023-05-21T00:18:16;35.14;32.18;39.20;;
66335;Laerm;53138;51.496;6.410;2023-05-21T00:18:27;34.25;31.62;37.72;;
66335;Laerm;53138;51.496;6.410;2023-05-21T00:18:37;35.39;32.67;40.33;;
66335;Laerm;53138;51.496;6.410;2023-05-21T00:18:48;35.54;32.81;40.13;;
66335;Laerm;53138;51.496;6.410;2023-05-21T00:18:58;36.03;32.64;38.44;;
66335;Laerm;53138;51.496;6.410;2023-05-21T00:19:09;40.66;35.72;47.22;;
66335;Laerm;53138;51.496;6.410;2023-05-21T00:19:19;43.94;37.13;49.61;;
66335;Laerm;53138;51.496;6.410;2023-05-21T00:19:29;37.13;34.95;39.91;;
66335;Laerm;53138;51.496;6.410;2023-05-21T00:19:41;38.69;34.71;42.68;;
66335;Laerm;53138;51.496;6.410;2023-05-21T00:19:51;41.17;36.77;45.76;;
66335;Laerm;53138;51.496;6.410;2023-05-21T00:20:02;41.51;34.74;46.78;;
66335;Laerm;53138;51.496;6.410;2023-05-21T00:20:15;37.77;33.96;41.53;;
66335;Laerm;53138;51.496;6.410;2023-05-21T00:20:26;35.44;30.96;40.19;;
66335;Laerm;53138;51.496;6.410;2023-05-21T00:20:38;34.32;30.40;41.06;;
66335;Laerm;53138;51.496;6.410;2023-05-21T00:20:50;34.35;31.56;39.19;;
66335;Laerm;53138;51.496;6.410;2023-05-21T00:21:00;35.74;32.72;38.87;;
66335;Laerm;53138;51.496;6.410;2023-05-21T00:21:11;35.69;32.84;40.39;;
66335;Laerm;53138;51.496;6.410;2023-05-21T00:21:21;37.31;34.09;43.47;;
66335;Laerm;53138;51.496;6.410;2023-05-21T00:21:31;37.93;33.06;43.76;;
66335;Laerm;53138;51.496;6.410;2023-05-21T00:21:42;34.80;32.53;37.83;;
66335;Laerm;53138;51.496;6.410;2023-05-21T00:21:54;36.48;32.53;40.69;;
66335;Laerm;53138;51.496;6.410;2023-05-21T00:22:06;40.79;35.52;45.24;;
66335;Laerm;53138;51.496;6.410;2023-05-21T00:22:17;37.20;33.60;41.66;;
66335;Laerm;53138;51.496;6.410;2023-05-21T00:22:27;36.99;33.16;40.96;;
66335;Laerm;53138;51.496;6.410;2023-05-21T00:22:37;36.82;33.76;42.06;;
66335;Laerm;53138;51.496;6.410;2023-05-21T00:22:49;37.72;34.10;42.75;;
66335;Laerm;53138;51.496;6.410;2023-05-21T00:22:59;36.02;32.82;40.50;;
66335;Laerm;53138;51.496;6.410;2023-05-21T00:23:13;36.17;32.38;39.87;;
66335;Laerm;53138;51.496;6.410;2023-05-21T00:23:27;36.79;33.27;41.10;;
66335;Laerm;53138;51.496;6.410;2023-05-21T00:23:41;38.40;34.47;44.46;;
66335;Laerm;53138;51.496;6.410;2023-05-21T00:23:52;37.76;33.77;42.28;;
66335;Laerm;53138;51.496;6.410;2023-05-21T00:24:05;36.78;31.81;40.69;;
66335;Laerm;53138;51.496;6.410;2023-05-21T00:24:16;35.67;32.38;39.36;;
66335;Laerm;53138;51.496;6.410;2023-05-21T00:24:27;35.41;31.68;39.70;;
66335;Laerm;53138;51.496;6.410;2023-05-21T00:24:37;34.68;31.33;39.49;;
66335;Laerm;53138;51.496;6.410;2023-05-21T00:24:47;35.12;32.45;37.63;;
66335;Laerm;53138;51.496;6.410;2023-05-21T00:24:58;36.49;32.80;42.20;;
66335;Laerm;53138;51.496;6.410;2023-05-21T00:25:08;36.54;32.29;43.66;;
66335;Laerm;53138;51.496;6.410;2023-05-21T00:25:19;36.00;31.87;41.75;;
66335;Laerm;53138;51.496;6.410;2023-05-21T00:25:29;36.47;31.95;42.04;;
66335;Laerm;53138;51.496;6.410;2023-05-21T00:25:40;37.95;33.83;41.92;;
66335;Laerm;53138;51.496;6.410;2023-05-21T00:25:51;37.06;33.79;42.26;;
66335;Laerm;53138;51.496;6.410;2023-05-21T00:26:01;39.81;34.56;45.06;;
66335;Laerm;53138;51.496;6.410;2023-05-21T00:26:11;37.77;34.31;40.87;;
66335;Laerm;53138;51.496;6.410;2023-05-21T00:26:21;38.84;33.89;45.69;;
66335;Laerm;53138;51.496;6.410;2023-05-21T00:26:33;37.26;33.63;41.84;;
66335;Laerm;53138;51.496;6.410;2023-05-21T00:26:43;36.65;33.19;40.90;;
66335;Laerm;53138;51.496;6.410;2023-05-21T00:26:53;38.62;33.54;45.13;;
66335;Laerm;53138;51.496;6.410;2023-05-21T00:27:03;35.60;33.09;38.57;;
66335;Laerm;53138;51.496;6.410;2023-05-21T00:27:14;38.82;34.61;42.41;;
66335;Laerm;53138;51.496;6.410;2023-05-21T00:27:24;36.24;33.84;42.28;;
66335;Laerm;53138;51.496;6.410;2023-05-21T00:27:34;35.96;32.76;40.86;;
66335;Laerm;53138;51.496;6.410;2023-05-21T00:27:45;36.72;33.91;39.95;;
66335;Laerm;53138;51.496;6.410;2023-05-21T00:27:55;41.04;34.86;46.75;;
66335;Laerm;53138;51.496;6.410;2023-05-21T00:28:05;36.25;32.60;39.39;;
66335;Laerm;53138;51.496;6.410;2023-05-21T00:28:16;34.89;31.74;39.23;;
66335;Laerm;53138;51.496;6.410;2023-05-21T00:28:26;35.51;31.64;41.71;;
66335;Laerm;53138;51.496;6.410;2023-05-21T00:28:36;40.56;33.82;48.74;;
66335;Laerm;53138;51.496;6.410;2023-05-21T00:28:46;39.83;32.61;47.39;;
66335;Laerm;53138;51.496;6.410;2023-05-21T00:28:56;38.20;32.69;44.21;;
66335;Laerm;53138;51.496;6.410;2023-05-21T00:29:07;38.20;34.26;41.33;;
66335;Laerm;53138;51.496;6.410;2023-05-21T00:29:17;36.56;33.55;40.42;;
66335;Laerm;53138;51.496;6.410;2023-05-21T00:29:27;34.01;31.84;37.57;;
66335;Laerm;53138;51.496;6.410;2023-05-21T00:29:39;37.81;33.22;43.36;;
66335;Laerm;53138;51.496;6.410;2023-05-21T00:29:49;39.52;35.02;44.21;;
66335;Laerm;53138;51.496;6.410;2023-05-21T00:29:59;37.00;34.60;39.23;;
66335;Laerm;53138;51.496;6.410;2023-05-21T00:30:10;36.72;33.74;39.13;;
66335;Laerm;53138;51.496;6.410;2023-05-21T00:30:20;36.51;34.22;39.68;;
66335;Laerm;53138;51.496;6.410;2023-05-21T00:30:31;34.13;31.05;38.25;;
66335;Laerm;53138;51.496;6.410;2023-05-21T00:30:41;37.89;32.54;43.31;;
66335;Laerm;53138;51.496;6.410;2023-05-21T00:30:52;36.51;32.66;41.97;;
66335;Laerm;53138;51.496;6.410;2023-05-21T00:31:02;37.72;32.69;43.35;;
66335;Laerm;53138;51.496;6.410;2023-05-21T00:31:12;39.32;33.63;44.18;;
66335;Laerm;53138;51.496;6.410;2023-05-21T00:31:22;37.29;33.50;42.17;;
66335;Laerm;53138;51.496;6.410;2023-05-21T00:31:33;36.88;33.63;43.78;;
66335;Laerm;53138;51.496;6.410;2023-05-21T00:31:43;42.19;36.45;46.92;;
66335;Laerm;53138;51.496;6.410;2023-05-21T00:31:53;36.91;33.54;41.23;;
66335;Laerm;53138;51.496;6.410;2023-05-21T00:32:03;35.21;31.70;40.69;;
66335;Laerm;53138;51.496;6.410;2023-05-21T00:32:14;36.50;32.61;43.36;;
66335;Laerm;53138;51.496;6.410;2023-05-21T00:32:24;38.93;33.06;46.00;;
66335;Laerm;53138;51.496;6.410;2023-05-21T00:32:35;39.99;34.89;44.81;;
66335;Laerm;53138;51.496;6.410;2023-05-21T00:32:45;40.77;35.09;47.49;;
66335;Laerm;53138;51.496;6.410;2023-05-21T00:32:56;40.19;36.19;44.48;;
66335;Laerm;53138;51.496;6.410;2023-05-21T00:33:07;36.09;31.77;39.85;;
66335;Laerm;53138;51.496;6.410;2023-05-21T00:33:19;35.69;31.51;40.62;;
66335;Laerm;53138;51.496;6.410;2023-05-21T00:33:30;34.80;31.20;40.29;;
66335;Laerm;53138;51.496;6.410;2023-05-21T00:33:40;39.07;34.34;43.41;;
66335;Laerm;53138;51.496;6.410;2023-05-21T00:33:51;36.25;31.54;40.88;;
66335;Laerm;53138;51.496;6.410;2023-05-21T00:34:01;34.77;31.94;38.76;;
66335;Laerm;53138;51.496;6.410;2023-05-21T00:34:12;35.03;31.94;44.32;;
66335;Laerm;53138;51.496;6.410;2023-05-21T00:34:22;33.51;31.82;37.05;;
66335;Laerm;53138;51.496;6.410;2023-05-21T00:34:32;33.12;31.18;38.22;;
66335;Laerm;53138;51.496;6.410;2023-05-21T00:34:43;31.82;29.92;33.47;;
66335;Laerm;53138;51.496;6.410;2023-05-21T00:34:53;34.58;30.55;37.98;;
66335;Laerm;53138;51.496;6.410;2023-05-21T00:35:03;35.66;31.29;41.89;;
66335;Laerm;53138;51.496;6.410;2023-05-21T00:35:14;34.51;31.36;40.04;;
66335;Laerm;53138;51.496;6.410;2023-05-21T00:35:24;39.36;35.18;44.60;;
66335;Laerm;53138;51.496;6.410;2023-05-21T00:35:35;39.51;35.77;44.68;;
66335;Laerm;53138;51.496;6.410;2023-05-21T00:35:45;36.15;32.58;40.05;;
66335;Laerm;53138;51.496;6.410;2023-05-21T00:35:55;34.30;31.76;38.63;;
66335;Laerm;53138;51.496;6.410;2023-05-21T00:36:06;34.43;31.30;41.58;;
66335;Laerm;53138;51.496;6.410;2023-05-21T00:36:16;41.86;36.29;47.43;;
66335;Laerm;53138;51.496;6.410;2023-05-21T00:36:26;35.15;30.39;40.34;;
66335;Laerm;53138;51.496;6.410;2023-05-21T00:36:37;33.74;30.56;37.56;;
66335;Laerm;53138;51.496;6.410;2023-05-21T00:36:49;34.00;31.75;37.86;;
66335;Laerm;53138;51.496;6.410;2023-05-21T00:36:59;36.36;31.88;40.39;;
66335;Laerm;53138;51.496;6.410;2023-05-21T00:37:11;34.62;31.12;40.76;;
66335;Laerm;53138;51.496;6.410;2023-05-21T00:37:24;34.51;31.52;38.54;;
66335;Laerm;53138;51.496;6.410;2023-05-21T00:37:34;34.15;30.52;40.23;;
66335;Laerm;53138;51.496;6.410;2023-05-21T00:37:44;32.69;30.79;35.25;;
66335;Laerm;53138;51.496;6.410;2023-05-21T00:37:56;32.84;30.70;35.41;;
66335;Laerm;53138;51.496;6.410;2023-05-21T00:38:07;32.18;30.03;35.40;;
66335;Laerm;53138;51.496;6.410;2023-05-21T00:38:18;31.64;29.98;34.41;;
66335;Laerm;53138;51.496;6.410;2023-05-21T00:38:28;33.02;30.70;40.95;;
66335;Laerm;53138;51.496;6.410;2023-05-21T00:38:42;32.33;30.06;35.78;;
66335;Laerm;53138;51.496;6.410;2023-05-21T00:38:52;33.41;30.01;40.48;;
66335;Laerm;53138;51.496;6.410;2023-05-21T00:39:03;33.08;30.30;39.17;;
66335;Laerm;53138;51.496;6.410;2023-05-21T00:39:13;35.39;30.71;41.82;;
66335;Laerm;53138;51.496;6.410;2023-05-21T00:39:24;34.44;30.09;42.86;;
66335;Laerm;53138;51.496;6.410;2023-05-21T00:39:34;30.92;29.58;33.03;;
66335;Laerm;53138;51.496;6.410;2023-05-21T00:39:45;31.61;29.66;37.01;;
66335;Laerm;53138;51.496;6.410;2023-05-21T00:39:55;31.38;29.69;33.61;;
66335;Laerm;53138;51.496;6.410;2023-05-21T00:40:05;31.48;29.69;36.16;;
66335;Laerm;53138;51.496;6.410;2023-05-21T00:40:17;33.52;29.99;37.50;;
66335;Laerm;53138;51.496;6.410;2023-05-21T00:40:28;36.54;31.90;44.29;;
66335;Laerm;53138;51.496;6.410;2023-05-21T00:40:39;37.93;31.85;45.62;;
66335;Laerm;53138;51.496;6.410;2023-05-21T00:40:50;35.77;32.18;39.10;;
66335;Laerm;53138;51.496;6.410;2023-05-21T00:41:00;38.50;32.40;46.35;;
66335;Laerm;53138;51.496;6.410;2023-05-21T00:41:11;34.21;31.36;40.42;;
66335;Laerm;53138;51.496;6.410;2023-05-21T00:41:22;36.32;31.29;43.56;;
66335;Laerm;53138;51.496;6.410;2023-05-21T00:41:33;35.16;31.60;42.71;;
66335;Laerm;53138;51.496;6.410;2023-05-21T00:41:44;36.29;31.94;42.76;;
66335;Laerm;53138;51.496;6.410;2023-05-21T00:41:55;35.02;29.93;42.42;;
66335;Laerm;53138;51.496;6.410;2023-05-21T00:42:06;32.65;30.43;36.53;;
66335;Laerm;53138;51.496;6.410;2023-05-21T00:42:16;35.85;31.88;41.88;;
66335;Laerm;53138;51.496;6.410;2023-05-21T00:42:27;38.02;32.45;44.97;;
66335;Laerm;53138;51.496;6.410;2023-05-21T00:42:39;36.94;32.25;44.72;;
66335;Laerm;53138;51.496;6.410;2023-05-21T00:42:50;37.02;32.61;44.84;;
66335;Laerm;53138;51.496;6.410;2023-05-21T00:43:00;35.60;32.33;41.92;;
66335;Laerm;53138;51.496;6.410;2023-05-21T00:43:11;37.97;33.54;46.25;;
66335;Laerm;53138;51.496;6.410;2023-05-21T00:43:23;35.79;31.35;41.94;;
66335;Laerm;53138;51.496;6.410;2023-05-21T00:43:35;35.19;32.21;40.71;;
66335;Laerm;53138;51.496;6.410;2023-05-21T00:43:49;33.59;31.00;39.32;;
66335;Laerm;53138;51.496;6.410;2023-05-21T00:43:59;34.64;30.98;40.64;;
66335;Laerm;53138;51.496;6.410;2023-05-21T00:44:09;32.89;30.06;38.72;;
66335;Laerm;53138;51.496;6.410;2023-05-21T00:44:23;32.26;30.18;35.23;;
66335;Laerm;53138;51.496;6.410;2023-05-21T00:44:34;33.84;31.41;37.06;;
66335;Laerm;53138;51.496;6.410;2023-05-21T00:44:44;32.82;30.35;36.62;;
66335;Laerm;53138;51.496;6.410;2023-05-21T00:44:55;36.41;31.49;41.00;;
66335;Laerm;53138;51.496;6.410;2023-05-21T00:45:06;35.26;31.65;40.00;;
66335;Laerm;53138;51.496;6.410;2023-05-21T00:45:16;36.94;32.44;42.51;;
66335;Laerm;53138;51.496;6.410;2023-05-21T00:45:27;37.58;33.80;44.37;;
66335;Laerm;53138;51.496;6.410;2023-05-21T00:45:39;40.41;35.04;46.17;;
66335;Laerm;53138;51.496;6.410;2023-05-21T00:45:50;41.20;35.83;47.32;;
66335;Laerm;53138;51.496;6.410;2023-05-21T00:46:02;39.63;35.93;45.46;;
66335;Laerm;53138;51.496;6.410;2023-05-21T00:46:13;39.27;32.10;47.12;;
66335;Laerm;53138;51.496;6.410;2023-05-21T00:46:25;35.10;31.27;40.13;;
66335;Laerm;53138;51.496;6.410;2023-05-21T00:46:38;37.33;31.06;47.73;;
66335;Laerm;53138;51.496;6.410;2023-05-21T00:46:49;36.50;32.27;44.98;;
66335;Laerm;53138;51.496;6.410;2023-05-21T00:47:02;36.12;32.43;41.32;;
66335;Laerm;53138;51.496;6.410;2023-05-21T00:47:13;36.93;30.98;43.79;;
66335;Laerm;53138;51.496;6.410;2023-05-21T00:47:23;33.08;30.65;38.13;;
66335;Laerm;53138;51.496;6.410;2023-05-21T00:47:35;36.64;31.63;42.65;;
66335;Laerm;53138;51.496;6.410;2023-05-21T00:47:46;40.53;34.14;45.80;;
66335;Laerm;53138;51.496;6.410;2023-05-21T00:47:57;36.29;32.18;41.75;;
66335;Laerm;53138;51.496;6.410;2023-05-21T00:48:07;35.83;32.34;39.70;;
66335;Laerm;53138;51.496;6.410;2023-05-21T00:48:18;36.89;31.59;46.14;;
66335;Laerm;53138;51.496;6.410;2023-05-21T00:48:29;41.02;34.42;50.41;;
66335;Laerm;53138;51.496;6.410;2023-05-21T00:48:41;38.34;32.36;43.99;;
66335;Laerm;53138;51.496;6.410;2023-05-21T00:48:52;35.93;31.62;39.80;;
66335;Laerm;53138;51.496;6.410;2023-05-21T00:49:03;38.00;33.59;42.40;;
66335;Laerm;53138;51.496;6.410;2023-05-21T00:49:13;38.42;30.87;46.36;;
66335;Laerm;53138;51.496;6.410;2023-05-21T00:49:24;37.90;31.63;44.00;;
66335;Laerm;53138;51.496;6.410;2023-05-21T00:49:34;32.96;30.44;38.43;;
66335;Laerm;53138;51.496;6.410;2023-05-21T00:49:45;32.13;30.27;38.38;;
66335;Laerm;53138;51.496;6.410;2023-05-21T00:49:56;36.82;30.13;49.04;;
66335;Laerm;53138;51.496;6.410;2023-05-21T00:50:06;30.85;29.30;33.29;;
66335;Laerm;53138;51.496;6.410;2023-05-21T00:50:17;30.74;29.37;32.29;;
66335;Laerm;53138;51.496;6.410;2023-05-21T00:50:27;30.94;29.45;35.26;;
66335;Laerm;53138;51.496;6.410;2023-05-21T00:50:39;31.13;29.60;32.90;;
66335;Laerm;53138;51.496;6.410;2023-05-21T00:50:50;31.77;29.63;33.79;;
66335;Laerm;53138;51.496;6.410;2023-05-21T00:51:00;31.26;29.56;33.07;;
66335;Laerm;53138;51.496;6.410;2023-05-21T00:51:11;34.29;30.05;39.59;;
66335;Laerm;53138;51.496;6.410;2023-05-21T00:51:22;33.16;30.87;35.81;;
66335;Laerm;53138;51.496;6.410;2023-05-21T00:51:33;36.03;31.46;42.88;;
66335;Laerm;53138;51.496;6.410;2023-05-21T00:51:43;34.06;31.19;38.86;;
66335;Laerm;53138;51.496;6.410;2023-05-21T00:51:54;34.58;31.27;40.22;;
66335;Laerm;53138;51.496;6.410;2023-05-21T00:52:05;32.54;30.12;36.50;;
66335;Laerm;53138;51.496;6.410;2023-05-21T00:52:16;34.74;30.68;43.83;;
66335;Laerm;53138;51.496;6.410;2023-05-21T00:52:29;35.17;30.50;46.07;;
66335;Laerm;53138;51.496;6.410;2023-05-21T00:52:40;33.31;30.12;41.02;;
66335;Laerm;53138;51.496;6.410;2023-05-21T00:52:51;32.17;29.82;38.39;;
66335;Laerm;53138;51.496;6.410;2023-05-21T00:53:02;32.69;29.54;39.25;;
66335;Laerm;53138;51.496;6.410;2023-05-21T00:53:12;33.09;30.03;41.11;;
66335;Laerm;53138;51.496;6.410;2023-05-21T00:53:24;33.54;30.66;40.16;;
66335;Laerm;53138;51.496;6.410;2023-05-21T00:53:34;32.79;30.17;38.63;;
66335;Laerm;53138;51.496;6.410;2023-05-21T00:53:45;33.16;30.04;38.05;;
66335;Laerm;53138;51.496;6.410;2023-05-21T00:53:55;34.13;31.18;38.67;;
66335;Laerm;53138;51.496;6.410;2023-05-21T00:54:07;34.32;30.54;37.64;;
66335;Laerm;53138;51.496;6.410;2023-05-21T00:54:17;34.83;31.50;39.11;;
66335;Laerm;53138;51.496;6.410;2023-05-21T00:54:28;36.53;31.81;42.33;;
66335;Laerm;53138;51.496;6.410;2023-05-21T00:54:39;37.91;33.45;42.37;;
66335;Laerm;53138;51.496;6.410;2023-05-21T00:54:49;37.44;33.37;44.18;;
66335;Laerm;53138;51.496;6.410;2023-05-21T00:55:00;36.68;31.78;44.15;;
66335;Laerm;53138;51.496;6.410;2023-05-21T00:55:10;35.99;32.36;41.84;;
66335;Laerm;53138;51.496;6.410;2023-05-21T00:55:21;33.68;30.69;38.35;;
66335;Laerm;53138;51.496;6.410;2023-05-21T00:55:31;34.61;31.22;39.92;;
66335;Laerm;53138;51.496;6.410;2023-05-21T00:55:41;33.46;31.26;36.17;;
66335;Laerm;53138;51.496;6.410;2023-05-21T00:55:51;40.39;32.31;47.31;;
66335;Laerm;53138;51.496;6.410;2023-05-21T00:56:02;34.88;30.57;41.99;;
66335;Laerm;53138;51.496;6.410;2023-05-21T00:56:13;31.52;29.60;34.77;;
66335;Laerm;53138;51.496;6.410;2023-05-21T00:56:23;30.97;29.53;32.83;;
66335;Laerm;53138;51.496;6.410;2023-05-21T00:56:33;31.15;29.71;33.11;;
66335;Laerm;53138;51.496;6.410;2023-05-21T00:56:44;31.66;29.85;33.50;;
66335;Laerm;53138;51.496;6.410;2023-05-21T00:56:55;31.75;30.12;35.71;;
66335;Laerm;53138;51.496;6.410;2023-05-21T00:57:05;33.10;30.81;37.80;;
66335;Laerm;53138;51.496;6.410;2023-05-21T00:57:16;34.31;30.50;42.65;;
66335;Laerm;53138;51.496;6.410;2023-05-21T00:57:29;33.39;29.53;39.48;;
66335;Laerm;53138;51.496;6.410;2023-05-21T00:57:42;34.13;30.53;41.79;;
66335;Laerm;53138;51.496;6.410;2023-05-21T00:57:52;36.91;29.96;46.65;;
66335;Laerm;53138;51.496;6.410;2023-05-21T00:58:03;36.99;30.95;43.75;;
66335;Laerm;53138;51.496;6.410;2023-05-21T00:58:13;33.05;30.62;40.73;;
66335;Laerm;53138;51.496;6.410;2023-05-21T00:58:24;34.67;31.21;42.99;;
66335;Laerm;53138;51.496;6.410;2023-05-21T00:58:34;35.37;30.66;45.56;;
66335;Laerm;53138;51.496;6.410;2023-05-21T00:58:45;33.00;30.19;39.74;;
66335;Laerm;53138;51.496;6.410;2023-05-21T00:58:56;33.63;29.97;41.79;;
66335;Laerm;53138;51.496;6.410;2023-05-21T00:59:07;33.99;30.18;45.09;;
66335;Laerm;53138;51.496;6.410;2023-05-21T00:59:17;36.47;30.70;45.12;;
66335;Laerm;53138;51.496;6.410;2023-05-21T00:59:28;34.57;30.71;40.95;;
66335;Laerm;53138;51.496;6.410;2023-05-21T00:59:38;35.53;30.24;44.15;;
66335;Laerm;53138;51.496;6.410;2023-05-21T00:59:50;36.12;32.33;42.17;;
66335;Laerm;53138;51.496;6.410;2023-05-21T01:00:00;40.28;34.48;46.49;;
66335;Laerm;53138;51.496;6.410;2023-05-21T01:00:11;36.36;31.99;40.68;;
66335;Laerm;53138;51.496;6.410;2023-05-21T01:00:23;33.61;29.41;40.73;;